createdAt,value
2018-05-29T00:02:14.200Z,101121.44
2018-05-29T00:04:43.054Z,101115.41
2018-05-29T00:07:11.899Z,101115.13
2018-05-29T00:09:40.765Z,101114.70
2018-05-29T00:12:09.600Z,101111.44
2018-05-29T00:14:38.453Z,101111.97
2018-05-29T00:17:07.298Z,101104.42
2018-05-29T00:19:36.185Z,101100.59
2018-05-29T00:22:05.039Z,101106.02
2018-05-29T00:24:33.879Z,101097.92
2018-05-29T00:27:02.719Z,101097.82
2018-05-29T00:29:31.595Z,101093.06
2018-05-29T00:32:00.434Z,101087.33
2018-05-29T00:34:29.273Z,101088.06
2018-05-29T00:36:58.150Z,101085.55
2018-05-29T00:39:27.005Z,101088.73
2018-05-29T00:41:55.841Z,101087.77
2018-05-29T00:44:24.687Z,101088.70
2018-05-29T00:46:53.538Z,101092.13
2018-05-29T00:49:22.381Z,101090.85
2018-05-29T00:51:51.248Z,101091.30
2018-05-29T00:54:20.110Z,101095.13
2018-05-29T00:56:48.963Z,101090.25
2018-05-29T00:59:17.799Z,101091.20
2018-05-29T01:01:46.669Z,101088.00
2018-05-29T01:04:15.538Z,101096.09
2018-05-29T01:06:44.349Z,101091.87
2018-05-29T01:09:13.246Z,101102.47
2018-05-29T01:11:42.076Z,101101.75
2018-05-29T01:14:10.936Z,101097.83
2018-05-29T01:16:39.771Z,101093.36
2018-05-29T01:19:08.620Z,101098.89
2018-05-29T01:21:37.477Z,101092.84
2018-05-29T01:24:06.367Z,101100.25
2018-05-29T01:26:35.200Z,101100.23
2018-05-29T01:29:04.059Z,101094.37
2018-05-29T01:31:32.877Z,101088.13
2018-05-29T01:34:01.733Z,101082.36
2018-05-29T01:36:30.552Z,101085.05
2018-05-29T01:38:59.409Z,101080.87
2018-05-29T01:41:28.253Z,101074.09
2018-05-29T01:43:57.109Z,101074.18
2018-05-29T01:46:25.968Z,101072.39
2018-05-29T01:48:54.785Z,101067.59
2018-05-29T01:51:23.642Z,101068.78
2018-05-29T01:53:52.487Z,101066.55
2018-05-29T01:56:21.349Z,101067.20
2018-05-29T01:58:50.187Z,101061.78
2018-05-29T02:01:19.158Z,101059.52
2018-05-29T02:03:47.924Z,101058.80
2018-05-29T02:06:16.779Z,101053.16
2018-05-29T02:08:45.601Z,101055.80
2018-05-29T02:11:14.463Z,101053.56
2018-05-29T02:13:43.296Z,101054.01
2018-05-29T02:16:12.167Z,101051.42
2018-05-29T02:18:41.023Z,101042.00
2018-05-29T02:21:09.881Z,101041.15
2018-05-29T02:23:38.739Z,101037.21
2018-05-29T02:26:07.646Z,101029.43
2018-05-29T02:28:36.533Z,101026.05
2018-05-29T02:31:05.389Z,101029.75
2018-05-29T02:33:34.238Z,101023.37
2018-05-29T02:36:03.110Z,101026.55
2018-05-29T02:38:31.977Z,101022.28
2018-05-29T02:41:00.846Z,101023.83
2018-05-29T02:43:29.693Z,101029.26
2018-05-29T02:45:58.542Z,101020.95
2018-05-29T02:48:27.416Z,101030.80
2018-05-29T02:50:56.243Z,101024.43
2018-05-29T02:53:25.097Z,101023.30
2018-05-29T02:55:53.949Z,101018.83
2018-05-29T02:58:22.813Z,101013.48
2018-05-29T03:00:51.678Z,101004.40
2018-05-29T03:03:20.539Z,101007.69
2018-05-29T03:05:49.383Z,100999.53
2018-05-29T03:08:18.225Z,100999.72
2018-05-29T03:10:47.070Z,101003.94
2018-05-29T03:13:16.043Z,101001.95
2018-05-29T03:15:44.897Z,101001.51
2018-05-29T03:18:13.753Z,101000.78
2018-05-29T03:20:42.595Z,100999.52
2018-05-29T03:23:11.499Z,101003.61
2018-05-29T03:25:40.371Z,100998.54
2018-05-29T03:28:09.188Z,100990.66
2018-05-29T03:30:38.065Z,101001.63
2018-05-29T03:33:06.886Z,100997.42
2018-05-29T03:35:35.746Z,100990.27
2018-05-29T03:38:04.597Z,100991.08
2018-05-29T03:40:33.442Z,100990.22
2018-05-29T03:43:02.321Z,100988.31
2018-05-29T03:45:31.204Z,100994.27
2018-05-29T03:48:00.059Z,100998.81
2018-05-29T03:50:28.899Z,100996.03
2018-05-29T03:52:57.725Z,100996.66
2018-05-29T03:55:26.572Z,101002.62
2018-05-29T03:57:55.378Z,101000.19
2018-05-29T04:00:24.245Z,101006.10
2018-05-29T04:02:53.061Z,101006.83
2018-05-29T04:05:21.914Z,101007.66
2018-05-29T04:07:50.792Z,101007.08
2018-05-29T04:10:19.607Z,101007.85
2018-05-29T04:12:48.492Z,101010.50
2018-05-29T04:15:17.328Z,101007.55
2018-05-29T04:17:46.172Z,101001.38
2018-05-29T04:20:15.041Z,100998.21
2018-05-29T04:22:43.901Z,100998.63
2018-05-29T04:25:12.731Z,100991.20
2018-05-29T04:27:41.595Z,100987.07
2018-05-29T04:30:10.437Z,100982.93
2018-05-29T04:32:39.301Z,100976.94
2018-05-29T04:35:08.143Z,100979.78
2018-05-29T04:37:36.963Z,100976.73
2018-05-29T04:40:05.810Z,100979.08
2018-05-29T04:42:34.664Z,100977.47
2018-05-29T04:45:03.547Z,100966.25
2018-05-29T04:47:32.377Z,100973.19
2018-05-29T04:50:01.227Z,100968.54
2018-05-29T04:52:30.083Z,100973.63
2018-05-29T04:54:58.929Z,100970.09
2018-05-29T04:57:27.801Z,100971.72
2018-05-29T04:59:56.640Z,100967.34
2018-05-29T05:02:25.498Z,100966.40
2018-05-29T05:04:54.460Z,100970.24
2018-05-29T05:07:23.338Z,100967.89
2018-05-29T05:09:52.157Z,100961.63
2018-05-29T05:12:21.044Z,100956.55
2018-05-29T05:14:49.872Z,100949.20
2018-05-29T05:17:18.743Z,100956.13
2018-05-29T05:19:47.588Z,100960.34
2018-05-29T05:22:16.524Z,100958.11
2018-05-29T05:24:45.362Z,100955.14
2018-05-29T05:27:14.191Z,100960.56
2018-05-29T05:29:43.056Z,100965.02
2018-05-29T05:32:11.912Z,100970.13
2018-05-29T05:34:40.780Z,100971.27
2018-05-29T05:37:09.622Z,100973.84
2018-05-29T05:39:38.483Z,100972.47
2018-05-29T05:42:07.320Z,100971.16
2018-05-29T05:44:36.181Z,100976.85
2018-05-29T05:47:05.091Z,100963.03
2018-05-29T05:49:33.873Z,100966.91
2018-05-29T05:52:02.721Z,100973.45
2018-05-29T05:54:31.561Z,100978.65
2018-05-29T05:57:00.406Z,100976.36
2018-05-29T05:59:29.242Z,100977.22
2018-05-29T06:01:58.102Z,100978.05
2018-05-29T06:04:26.938Z,100984.01
2018-05-29T06:06:56.985Z,100983.97
2018-05-29T06:09:25.868Z,100984.39
2018-05-29T06:11:54.717Z,100980.23
2018-05-29T06:14:23.579Z,100980.07
2018-05-29T06:16:52.444Z,100977.74
2018-05-29T06:19:21.289Z,100969.20
2018-05-29T06:21:50.177Z,100978.06
2018-05-29T06:24:19.051Z,100970.81
2018-05-29T06:26:47.846Z,100966.38
2018-05-29T06:29:16.691Z,100964.94
2018-05-29T06:31:45.525Z,100964.70
2018-05-29T06:34:14.370Z,100961.22
2018-05-29T06:36:43.251Z,100967.53
2018-05-29T06:39:12.129Z,100961.45
2018-05-29T06:41:40.965Z,100965.06
2018-05-29T06:44:09.824Z,100967.48
2018-05-29T06:46:38.657Z,100961.55
2018-05-29T06:49:07.495Z,100959.34
2018-05-29T06:51:36.385Z,100961.41
2018-05-29T06:54:05.257Z,100952.20
2018-05-29T06:56:34.146Z,100952.97
2018-05-29T06:59:03.233Z,100954.09
2018-05-29T07:01:32.063Z,100948.14
2018-05-29T07:04:01.030Z,100955.31
2018-05-29T07:06:29.832Z,100954.55
2018-05-29T07:08:58.698Z,100958.56
2018-05-29T07:11:27.521Z,100952.88
2018-05-29T07:13:56.380Z,100944.20
2018-05-29T07:16:25.220Z,100954.11
2018-05-29T07:18:54.079Z,100954.89
2018-05-29T07:21:22.921Z,100951.98
2018-05-29T07:23:51.769Z,100947.78
2018-05-29T07:26:20.601Z,100947.33
2018-05-29T07:28:49.474Z,100948.28
2018-05-29T07:31:18.352Z,100936.55
2018-05-29T07:33:47.205Z,100934.54
2018-05-29T07:36:16.053Z,100930.31
2018-05-29T07:38:44.938Z,100925.47
2018-05-29T07:41:13.818Z,100930.44
2018-05-29T07:43:42.705Z,100926.05
2018-05-29T07:46:11.536Z,100923.67
2018-05-29T07:48:40.397Z,100927.63
2018-05-29T07:51:09.268Z,100924.48
2018-05-29T07:53:38.187Z,100926.16
2018-05-29T07:56:07.027Z,100926.36
2018-05-29T07:58:35.867Z,100922.98
2018-05-29T08:01:04.729Z,100921.09
2018-05-29T08:03:33.621Z,100913.19
2018-05-29T08:06:02.480Z,100920.73
2018-05-29T08:08:31.324Z,100919.81
2018-05-29T08:11:00.184Z,100918.69
2018-05-29T08:13:29.033Z,100914.45
2018-05-29T08:15:57.867Z,100912.08
2018-05-29T08:18:26.749Z,100918.55
2018-05-29T08:20:55.562Z,100917.78
2018-05-29T08:23:24.500Z,100914.15
2018-05-29T08:25:53.355Z,100908.59
2018-05-29T08:28:22.206Z,100895.61
2018-05-29T08:30:51.032Z,100901.81
2018-05-29T08:33:19.891Z,100898.72
2018-05-29T08:35:48.731Z,100892.41
2018-05-29T08:38:17.823Z,100889.67
2018-05-29T08:40:46.682Z,100891.55
2018-05-29T08:43:15.582Z,100892.69
2018-05-29T08:45:44.444Z,100884.17
2018-05-29T08:48:13.262Z,100873.62
2018-05-29T08:50:42.144Z,100880.95
2018-05-29T08:53:11.144Z,100880.51
2018-05-29T08:55:40.023Z,100875.75
2018-05-29T08:58:08.919Z,100879.36
2018-05-29T09:00:37.772Z,100872.53
2018-05-29T09:03:06.611Z,100873.62
2018-05-29T09:05:35.468Z,100871.73
2018-05-29T09:08:04.383Z,100870.28
2018-05-29T09:10:33.262Z,100865.19
2018-05-29T09:13:02.154Z,100859.55
2018-05-29T09:15:31.046Z,100858.63
2018-05-29T09:17:59.918Z,100855.13
2018-05-29T09:20:28.747Z,100851.91
2018-05-29T09:22:57.573Z,100843.45
2018-05-29T09:25:26.411Z,100845.77
2018-05-29T09:27:55.397Z,100843.09
2018-05-29T09:30:24.174Z,100845.31
2018-05-29T09:32:53.084Z,100839.31
2018-05-29T09:35:21.943Z,100835.33
2018-05-29T09:37:50.860Z,100838.91
2018-05-29T09:40:19.795Z,100835.04
2018-05-29T09:42:48.642Z,100831.73
2018-05-29T09:45:17.526Z,100830.17
2018-05-29T09:47:46.412Z,100829.36
2018-05-29T09:50:15.296Z,100815.40
2018-05-29T09:52:44.177Z,100812.05
2018-05-29T09:55:13.032Z,100811.23
2018-05-29T09:57:41.876Z,100813.59
2018-05-29T10:00:10.746Z,100815.25
2018-05-29T10:02:39.604Z,100810.62
2018-05-29T10:05:09.301Z,100805.16
2018-05-29T10:07:38.169Z,100800.08
2018-05-29T10:10:07.054Z,100802.28
2018-05-29T10:12:35.929Z,100803.04
2018-05-29T10:15:04.853Z,100794.72
2018-05-29T10:17:33.703Z,100792.17
2018-05-29T10:20:02.547Z,100790.77
2018-05-29T10:22:31.435Z,100783.29
2018-05-29T10:25:00.312Z,100788.73
2018-05-29T10:27:29.152Z,100784.08
2018-05-29T10:29:58.244Z,100779.11
2018-05-29T10:32:27.083Z,100770.67
2018-05-29T10:34:55.962Z,100774.08
2018-05-29T10:37:24.828Z,100770.03
2018-05-29T10:39:53.686Z,100762.37
2018-05-29T10:42:22.545Z,100769.64
2018-05-29T10:44:51.415Z,100771.30
2018-05-29T10:47:20.281Z,100763.00
2018-05-29T10:49:49.110Z,100756.09
2018-05-29T10:52:17.988Z,100767.23
2018-05-29T10:54:46.977Z,100755.98
2018-05-29T10:57:15.776Z,100756.73
2018-05-29T10:59:44.644Z,100766.39
2018-05-29T11:02:13.541Z,100762.90
2018-05-29T11:04:42.364Z,100757.02
2018-05-29T11:07:11.290Z,100754.50
2018-05-29T11:09:40.154Z,100760.50
2018-05-29T11:12:08.997Z,100750.30
2018-05-29T11:14:37.889Z,100748.03
2018-05-29T11:17:06.797Z,100755.20
2018-05-29T11:19:35.637Z,100749.64
2018-05-29T11:22:04.496Z,100744.17
2018-05-29T11:24:33.336Z,100739.30
2018-05-29T11:27:02.202Z,100739.71
2018-05-29T11:29:31.031Z,100731.90
2018-05-29T11:31:59.905Z,100738.80
2018-05-29T11:34:28.739Z,100733.69
2018-05-29T11:36:57.585Z,100727.97
2018-05-29T11:39:26.463Z,100725.71
2018-05-29T11:41:55.357Z,100715.69
2018-05-29T11:44:24.231Z,100709.27
2018-05-29T11:46:53.163Z,100713.27
2018-05-29T11:49:22.012Z,100707.06
2018-05-29T11:51:50.852Z,100707.19
2018-05-29T11:54:19.686Z,100692.69
2018-05-29T11:56:48.505Z,100699.20
2018-05-29T11:59:17.378Z,100693.45
2018-05-29T12:01:46.233Z,100689.92
2018-05-29T12:04:15.063Z,100689.22
2018-05-29T12:06:43.955Z,100682.16
2018-05-29T12:09:12.808Z,100668.59
2018-05-29T12:11:41.715Z,100655.11
2018-05-29T12:14:10.689Z,100663.48
2018-05-29T12:16:39.544Z,100658.17
2018-05-29T12:19:08.382Z,100660.53
2018-05-29T12:21:37.237Z,100657.63
2018-05-29T12:24:06.090Z,100653.14
2018-05-29T12:26:34.949Z,100652.91
2018-05-29T12:29:04.544Z,100656.69
2018-05-29T12:31:33.496Z,100633.91
2018-05-29T12:34:02.341Z,100632.05
2018-05-29T12:36:31.230Z,100626.09
2018-05-29T12:39:00.087Z,100629.19
2018-05-29T12:41:28.926Z,100630.91
2018-05-29T12:43:57.794Z,100623.07
2018-05-29T12:46:26.735Z,100618.40
2018-05-29T12:48:55.553Z,100615.47
2018-05-29T12:51:24.388Z,100611.98
2018-05-29T12:53:53.253Z,100609.76
2018-05-29T12:56:22.176Z,100602.89
2018-05-29T12:58:51.022Z,100604.28
2018-05-29T13:01:19.870Z,100609.05
2018-05-29T13:03:48.765Z,100610.58
2018-05-29T13:06:17.707Z,100606.94
2018-05-29T13:08:46.615Z,100611.64
2018-05-29T13:11:15.537Z,100605.55
2018-05-29T13:13:44.378Z,100602.77
2018-05-29T13:16:13.209Z,100603.69
2018-05-29T13:18:42.075Z,100603.21
2018-05-29T13:21:10.947Z,100604.47
2018-05-29T13:23:39.831Z,100599.52
2018-05-29T13:26:08.660Z,100601.77
2018-05-29T13:28:37.520Z,100599.05
2018-05-29T13:31:06.409Z,100584.23
2018-05-29T13:33:35.235Z,100576.99
2018-05-29T13:36:04.112Z,100565.61
2018-05-29T13:38:32.987Z,100562.22
2018-05-29T13:41:01.879Z,100560.03
2018-05-29T13:43:30.784Z,100550.98
2018-05-29T13:45:59.664Z,100551.88
2018-05-29T13:48:28.500Z,100556.68
2018-05-29T13:50:57.363Z,100559.84
2018-05-29T13:53:26.230Z,100556.22
2018-05-29T13:55:55.155Z,100553.18
2018-05-29T13:58:23.988Z,100548.57
2018-05-29T14:00:52.824Z,100551.84
2018-05-29T14:03:21.681Z,100553.74
2018-05-29T14:05:50.499Z,100551.89
2018-05-29T14:08:19.367Z,100540.53
2018-05-29T14:10:48.219Z,100538.55
2018-05-29T14:13:17.062Z,100528.86
2018-05-29T14:15:45.936Z,100525.37
2018-05-29T14:18:14.785Z,100520.17
2018-05-29T14:20:43.639Z,100515.52
2018-05-29T14:23:12.461Z,100518.48
2018-05-29T14:25:41.297Z,100517.01
2018-05-29T14:28:10.130Z,100528.05
2018-05-29T14:30:39.020Z,100528.53
2018-05-29T14:33:07.888Z,100530.55
2018-05-29T14:35:36.725Z,100525.12
2018-05-29T14:38:05.577Z,100521.56
2018-05-29T14:40:34.560Z,100516.88
2018-05-29T14:43:03.460Z,100517.59
2018-05-29T14:45:32.351Z,100518.61
2018-05-29T14:48:01.223Z,100528.51
2018-05-29T14:50:30.123Z,100532.23
2018-05-29T14:52:59.005Z,100533.09
2018-05-29T14:55:27.923Z,100532.94
2018-05-29T14:57:56.954Z,100523.59
2018-05-29T15:00:25.921Z,100522.27
2018-05-29T15:02:54.867Z,100523.70
2018-05-29T15:05:23.731Z,100513.62
2018-05-29T15:07:52.745Z,100512.78
2018-05-29T15:10:21.625Z,100511.69
2018-05-29T15:12:50.499Z,100515.30
2018-05-29T15:15:19.350Z,100508.31
2018-05-29T15:17:48.212Z,100507.66
2018-05-29T15:20:17.415Z,100509.67
2018-05-29T15:22:46.241Z,100508.77
2018-05-29T15:25:15.143Z,100506.66
2018-05-29T15:27:44.059Z,100503.42
2018-05-29T15:30:12.962Z,100514.72
2018-05-29T15:32:41.796Z,100516.48
2018-05-29T15:35:10.631Z,100522.61
2018-05-29T15:37:39.904Z,100536.36
2018-05-29T15:40:08.743Z,100544.48
2018-05-29T15:42:37.625Z,100537.77
2018-05-29T15:45:06.477Z,100533.20
2018-05-29T15:47:35.333Z,100557.70
2018-05-29T15:50:04.274Z,100586.30
2018-05-29T15:52:33.109Z,100643.24
2018-05-29T15:55:02.016Z,100688.40
2018-05-29T15:57:30.856Z,100672.78
2018-05-29T15:59:59.816Z,100647.20
2018-05-29T16:02:28.598Z,100641.38
2018-05-29T16:04:57.474Z,100598.52
2018-05-29T16:07:26.304Z,100572.28
2018-05-29T16:09:55.151Z,100542.86
2018-05-29T16:12:24.043Z,100518.09
2018-05-29T16:14:52.897Z,100520.08
2018-05-29T16:17:21.754Z,100525.61
2018-05-29T16:19:50.799Z,100549.13
2018-05-29T16:22:19.648Z,100586.30
2018-05-29T16:24:48.578Z,100614.59
2018-05-29T16:27:17.474Z,100630.42
2018-05-29T16:29:46.313Z,100649.30
2018-05-29T16:32:15.183Z,100685.46
2018-05-29T16:34:44.048Z,100693.61
2018-05-29T16:37:12.853Z,100680.41
2018-05-29T16:39:41.727Z,100656.75
2018-05-29T16:42:10.568Z,100644.37
2018-05-29T16:44:39.444Z,100642.94
2018-05-29T16:47:08.330Z,100661.91
2018-05-29T16:49:37.174Z,100668.71
2018-05-29T16:52:06.044Z,100669.72
2018-05-29T16:54:34.886Z,100657.58
2018-05-29T16:57:03.770Z,100639.19
2018-05-29T16:59:32.638Z,100621.41
2018-05-29T17:02:01.475Z,100592.65
2018-05-29T17:04:30.341Z,100591.97
2018-05-29T17:06:59.215Z,100606.45
2018-05-29T17:09:28.066Z,100600.61
2018-05-29T17:11:56.909Z,100608.89
2018-05-29T17:14:25.790Z,100605.59
2018-05-29T17:16:54.641Z,100591.84
2018-05-29T17:19:23.499Z,100580.72
2018-05-29T17:21:52.420Z,100568.92
2018-05-29T17:24:21.227Z,100568.88
2018-05-29T17:26:50.074Z,100565.09
2018-05-29T17:29:18.953Z,100578.17
2018-05-29T17:31:47.800Z,100591.61
2018-05-29T17:34:22.887Z,100596.67
2018-05-29T17:36:51.718Z,100595.85
2018-05-29T17:39:20.608Z,100591.43
2018-05-29T17:41:49.441Z,100592.32
2018-05-29T17:44:18.320Z,100585.00
2018-05-29T17:46:47.181Z,100604.06
2018-05-29T17:49:16.019Z,100597.31
2018-05-29T17:51:44.892Z,100621.70
2018-05-29T17:54:13.762Z,100627.61
2018-05-29T17:56:42.766Z,100627.83
2018-05-29T17:59:11.593Z,100636.33
2018-05-29T18:01:40.461Z,100632.35
2018-05-29T18:04:09.353Z,100630.23
2018-05-29T18:06:38.234Z,100624.95
2018-05-29T18:09:07.091Z,100627.30
2018-05-29T18:11:35.977Z,100630.25
2018-05-29T18:14:04.889Z,100635.58
2018-05-29T18:16:33.759Z,100642.14
2018-05-29T18:19:02.588Z,100654.32
2018-05-29T18:21:31.467Z,100679.77
2018-05-29T18:24:00.354Z,100693.44
2018-05-29T18:26:29.236Z,100702.22
2018-05-29T18:28:58.081Z,100707.48
2018-05-29T18:31:26.984Z,100711.42
2018-05-29T18:33:55.813Z,100714.41
2018-05-29T18:36:24.671Z,100724.16
2018-05-29T18:38:53.989Z,100732.53
2018-05-29T18:41:23.188Z,100738.36
2018-05-29T18:43:52.040Z,100737.09
2018-05-29T18:46:20.907Z,100730.66
2018-05-29T18:48:49.753Z,100733.61
2018-05-29T18:51:18.654Z,100742.41
2018-05-29T18:53:47.426Z,100747.30
2018-05-29T18:56:16.270Z,100750.89
2018-05-29T18:58:45.141Z,100751.63
2018-05-29T19:01:14.021Z,100742.95
2018-05-29T19:03:42.907Z,100742.75
2018-05-29T19:06:11.743Z,100738.29
2018-05-29T19:08:40.662Z,100737.07
2018-05-29T19:11:09.532Z,100734.88
2018-05-29T19:13:38.402Z,100733.71
2018-05-29T19:16:07.261Z,100732.22
2018-05-29T19:18:36.146Z,100733.59
2018-05-29T19:21:05.060Z,100733.59
2018-05-29T19:23:34.442Z,100724.56
2018-05-29T19:26:03.254Z,100727.16
2018-05-29T19:28:32.164Z,100713.67
2018-05-29T19:31:01.052Z,100712.71
2018-05-29T19:33:29.920Z,100716.34
2018-05-29T19:35:58.943Z,100714.11
2018-05-29T19:38:27.804Z,100712.63
2018-05-29T19:40:56.668Z,100702.55
2018-05-29T19:43:25.575Z,100694.72
2018-05-29T19:45:56.414Z,100695.88
2018-05-29T19:48:25.255Z,100692.72
2018-05-29T19:50:54.153Z,100695.66
2018-05-29T19:53:22.964Z,100704.34
2018-05-29T19:55:51.797Z,100702.86
2018-05-29T19:58:20.683Z,100701.59
2018-05-29T20:00:49.611Z,100705.20
2018-05-29T20:03:18.470Z,100703.73
2018-05-29T20:05:47.365Z,100694.94
2018-05-29T20:08:16.246Z,100688.37
2018-05-29T20:10:45.142Z,100686.97
2018-05-29T20:13:14.000Z,100689.84
2018-05-29T20:15:42.870Z,100687.61
2018-05-29T20:18:11.701Z,100685.51
2018-05-29T20:20:40.569Z,100685.27
2018-05-29T20:23:09.447Z,100678.83
2018-05-29T20:25:38.290Z,100682.50
2018-05-29T20:28:07.164Z,100693.43
2018-05-29T20:30:36.146Z,100698.41
2018-05-29T20:33:05.249Z,100699.70
2018-05-29T20:35:34.152Z,100701.39
2018-05-29T20:38:03.044Z,100694.40
2018-05-29T20:40:31.910Z,100700.42
2018-05-29T20:43:00.751Z,100700.28
2018-05-29T20:45:29.600Z,100705.56
2018-05-29T20:47:58.614Z,100707.66
2018-05-29T20:50:27.475Z,100701.02
2018-05-29T20:52:56.396Z,100699.32
2018-05-29T20:55:25.339Z,100701.34
2018-05-29T20:57:54.146Z,100702.60
2018-05-29T21:00:23.055Z,100701.84
2018-05-29T21:02:51.917Z,100702.63
2018-05-29T21:05:20.761Z,100700.02
2018-05-29T21:07:49.606Z,100700.92
2018-05-29T21:10:18.476Z,100699.11
2018-05-29T21:12:47.417Z,100697.73
2018-05-29T21:15:16.362Z,100704.50
2018-05-29T21:17:45.258Z,100704.63
2018-05-29T21:20:14.131Z,100694.66
2018-05-29T21:22:42.986Z,100699.28
2018-05-29T21:25:11.851Z,100702.25
2018-05-29T21:27:40.722Z,100708.31
2018-05-29T21:30:09.562Z,100707.78
2018-05-29T21:32:38.449Z,100707.38
2018-05-29T21:35:07.346Z,100718.39
2018-05-29T21:37:36.223Z,100730.34
2018-05-29T21:40:05.080Z,100731.40
2018-05-29T21:42:33.937Z,100732.13
2018-05-29T21:45:02.797Z,100726.54
2018-05-29T21:47:31.746Z,100733.62
2018-05-29T21:50:00.647Z,100738.36
2018-05-29T21:52:29.500Z,100744.40
2018-05-29T21:54:58.357Z,100747.23
2018-05-29T21:57:27.291Z,100759.33
2018-05-29T21:59:56.250Z,100761.03
2018-05-29T22:02:25.078Z,100766.20
2018-05-29T22:04:54.025Z,100769.70
2018-05-29T22:07:22.899Z,100772.03
2018-05-29T22:09:51.785Z,100773.81
2018-05-29T22:12:20.651Z,100777.09
2018-05-29T22:14:49.520Z,100775.45
2018-05-29T22:17:18.345Z,100772.25
2018-05-29T22:19:47.210Z,100772.33
2018-05-29T22:22:16.208Z,100769.17
2018-05-29T22:24:45.053Z,100761.04
2018-05-29T22:27:13.892Z,100767.40
2018-05-29T22:29:42.749Z,100759.46
2018-05-29T22:32:11.599Z,100768.25
2018-05-29T22:34:40.426Z,100758.09
2018-05-29T22:37:09.286Z,100764.12
2018-05-29T22:39:38.177Z,100764.89
2018-05-29T22:42:06.971Z,100766.92
2018-05-29T22:44:35.813Z,100771.98
2018-05-29T22:47:04.665Z,100775.30
2018-05-29T22:49:33.547Z,100780.58
2018-05-29T22:52:02.383Z,100785.55
2018-05-29T22:54:31.246Z,100790.45
2018-05-29T22:57:00.115Z,100799.00
2018-05-29T22:59:28.956Z,100808.03
2018-05-29T23:01:57.807Z,100812.78
2018-05-29T23:04:26.654Z,100820.03
2018-05-29T23:06:55.500Z,100822.26
2018-05-29T23:09:24.333Z,100818.41
2018-05-29T23:11:53.182Z,100821.48
2018-05-29T23:14:22.013Z,100823.39
2018-05-29T23:16:50.883Z,100819.98
2018-05-29T23:19:19.723Z,100823.59
2018-05-29T23:21:48.634Z,100819.70
2018-05-29T23:24:17.484Z,100813.95
2018-05-29T23:26:46.316Z,100807.98
2018-05-29T23:29:15.180Z,100808.83
2018-05-29T23:31:44.053Z,100811.05
2018-05-29T23:34:12.894Z,100806.72
2018-05-29T23:36:41.772Z,100807.64
2018-05-29T23:39:10.640Z,100808.18
2018-05-29T23:41:39.468Z,100808.09
2018-05-29T23:44:08.332Z,100808.91
2018-05-29T23:46:37.189Z,100802.22
2018-05-29T23:49:06.043Z,100798.62
2018-05-29T23:51:34.886Z,100798.52
2018-05-29T23:54:03.724Z,100794.53
2018-05-29T23:56:32.567Z,100791.67
2018-05-29T23:59:01.478Z,100796.97
